sensor_id;sensor_type;location;lat;lon;timestamp;P1;durP1;ratioP1;P2;durP2;ratioP2
37097;SDS011;63608;49.572;12.348;2024-02-26T00:01:37;2.20;;;2.10;;
37097;SDS011;63608;49.572;12.348;2024-02-26T00:03:39;3.57;;;2.10;;
37097;SDS011;63608;49.572;12.348;2024-02-26T00:05:42;2.30;;;2.13;;
37097;SDS011;63608;49.572;12.348;2024-02-26T00:07:44;2.47;;;2.37;;
37097;SDS011;63608;49.572;12.348;2024-02-26T00:09:47;2.10;;;2.00;;
37097;SDS011;63608;49.572;12.348;2024-02-26T00:11:50;2.23;;;2.13;;
37097;SDS011;63608;49.572;12.348;2024-02-26T00:13:53;2.20;;;2.10;;
37097;SDS011;63608;49.572;12.348;2024-02-26T00:15:54;2.30;;;2.10;;
37097;SDS011;63608;49.572;12.348;2024-02-26T00:17:56;1.90;;;1.80;;
37097;SDS011;63608;49.572;12.348;2024-02-26T00:19:58;1.73;;;1.73;;
37097;SDS011;63608;49.572;12.348;2024-02-26T00:21:59;2.50;;;2.30;;
37097;SDS011;63608;49.572;12.348;2024-02-26T00:24:01;2.13;;;2.03;;
37097;SDS011;63608;49.572;12.348;2024-02-26T00:26:03;1.90;;;1.80;;
37097;SDS011;63608;49.572;12.348;2024-02-26T00:28:06;2.80;;;2.70;;
37097;SDS011;63608;49.572;12.348;2024-02-26T00:30:09;2.43;;;2.23;;
37097;SDS011;63608;49.572;12.348;2024-02-26T00:32:12;5.40;;;2.77;;
37097;SDS011;63608;49.572;12.348;2024-02-26T00:34:14;3.00;;;2.70;;
37097;SDS011;63608;49.572;12.348;2024-02-26T00:36:15;2.23;;;2.03;;
37097;SDS011;63608;49.572;12.348;2024-02-26T00:38:18;2.60;;;2.50;;
37097;SDS011;63608;49.572;12.348;2024-02-26T00:40:20;3.17;;;2.40;;
37097;SDS011;63608;49.572;12.348;2024-02-26T00:42:22;2.70;;;2.60;;
37097;SDS011;63608;49.572;12.348;2024-02-26T00:44:26;2.30;;;2.20;;
37097;SDS011;63608;49.572;12.348;2024-02-26T00:46:28;2.47;;;2.37;;
37097;SDS011;63608;49.572;12.348;2024-02-26T00:48:30;4.17;;;2.60;;
37097;SDS011;63608;49.572;12.348;2024-02-26T00:50:32;2.30;;;2.20;;
37097;SDS011;63608;49.572;12.348;2024-02-26T00:52:34;2.73;;;2.50;;
37097;SDS011;63608;49.572;12.348;2024-02-26T00:54:36;2.40;;;2.30;;
37097;SDS011;63608;49.572;12.348;2024-02-26T00:56:38;2.17;;;2.07;;
37097;SDS011;63608;49.572;12.348;2024-02-26T00:58:40;2.10;;;2.00;;
37097;SDS011;63608;49.572;12.348;2024-02-26T01:00:43;2.37;;;2.27;;
37097;SDS011;63608;49.572;12.348;2024-02-26T01:02:46;2.37;;;2.27;;
37097;SDS011;63608;49.572;12.348;2024-02-26T01:04:47;2.60;;;2.50;;
37097;SDS011;63608;49.572;12.348;2024-02-26T01:06:49;2.83;;;2.73;;
37097;SDS011;63608;49.572;12.348;2024-02-26T01:08:51;2.87;;;2.67;;
37097;SDS011;63608;49.572;12.348;2024-02-26T01:10:53;2.27;;;2.17;;
37097;SDS011;63608;49.572;12.348;2024-02-26T01:12:55;2.60;;;2.50;;
37097;SDS011;63608;49.572;12.348;2024-02-26T01:14:57;2.70;;;2.50;;
37097;SDS011;63608;49.572;12.348;2024-02-26T01:17:00;2.20;;;2.10;;
37097;SDS011;63608;49.572;12.348;2024-02-26T01:19:02;2.80;;;2.60;;
37097;SDS011;63608;49.572;12.348;2024-02-26T01:21:04;2.60;;;2.50;;
37097;SDS011;63608;49.572;12.348;2024-02-26T01:23:09;3.03;;;2.90;;
37097;SDS011;63608;49.572;12.348;2024-02-26T01:25:10;2.70;;;2.50;;
37097;SDS011;63608;49.572;12.348;2024-02-26T01:27:12;2.53;;;2.43;;
37097;SDS011;63608;49.572;12.348;2024-02-26T01:29:14;2.90;;;2.63;;
37097;SDS011;63608;49.572;12.348;2024-02-26T01:31:16;2.80;;;2.70;;
37097;SDS011;63608;49.572;12.348;2024-02-26T01:33:19;2.40;;;2.30;;
37097;SDS011;63608;49.572;12.348;2024-02-26T01:35:21;2.90;;;2.70;;
37097;SDS011;63608;49.572;12.348;2024-02-26T01:37:22;4.07;;;3.10;;
37097;SDS011;63608;49.572;12.348;2024-02-26T01:39:24;2.87;;;2.67;;
37097;SDS011;63608;49.572;12.348;2024-02-26T01:41:26;2.70;;;2.57;;
37097;SDS011;63608;49.572;12.348;2024-02-26T01:43:28;2.60;;;2.50;;
37097;SDS011;63608;49.572;12.348;2024-02-26T01:45:30;2.93;;;2.73;;
37097;SDS011;63608;49.572;12.348;2024-02-26T01:47:31;2.70;;;2.57;;
37097;SDS011;63608;49.572;12.348;2024-02-26T01:49:35;2.60;;;2.50;;
37097;SDS011;63608;49.572;12.348;2024-02-26T01:51:37;2.80;;;2.60;;
37097;SDS011;63608;49.572;12.348;2024-02-26T01:53:40;2.93;;;2.80;;
37097;SDS011;63608;49.572;12.348;2024-02-26T01:55:43;2.70;;;2.60;;
37097;SDS011;63608;49.572;12.348;2024-02-26T01:57:45;2.57;;;2.47;;
37097;SDS011;63608;49.572;12.348;2024-02-26T01:59:47;3.30;;;3.17;;
37097;SDS011;63608;49.572;12.348;2024-02-26T02:01:50;2.60;;;2.50;;
37097;SDS011;63608;49.572;12.348;2024-02-26T02:03:54;3.40;;;3.13;;
37097;SDS011;63608;49.572;12.348;2024-02-26T02:05:59;3.00;;;2.80;;
37097;SDS011;63608;49.572;12.348;2024-02-26T02:08:01;3.10;;;2.90;;
37097;SDS011;63608;49.572;12.348;2024-02-26T02:10:05;4.00;;;3.70;;
37097;SDS011;63608;49.572;12.348;2024-02-26T02:12:08;3.10;;;2.90;;
37097;SDS011;63608;49.572;12.348;2024-02-26T02:14:11;4.67;;;3.37;;
37097;SDS011;63608;49.572;12.348;2024-02-26T02:16:13;3.20;;;3.00;;
37097;SDS011;63608;49.572;12.348;2024-02-26T02:18:15;3.60;;;3.30;;
37097;SDS011;63608;49.572;12.348;2024-02-26T02:20:17;3.80;;;3.60;;
37097;SDS011;63608;49.572;12.348;2024-02-26T02:22:20;4.87;;;3.40;;
37097;SDS011;63608;49.572;12.348;2024-02-26T02:24:22;4.13;;;3.70;;
37097;SDS011;63608;49.572;12.348;2024-02-26T02:26:24;3.53;;;3.33;;
37097;SDS011;63608;49.572;12.348;2024-02-26T02:28:26;5.00;;;3.53;;
37097;SDS011;63608;49.572;12.348;2024-02-26T02:30:29;4.10;;;3.67;;
37097;SDS011;63608;49.572;12.348;2024-02-26T02:32:33;3.50;;;3.30;;
37097;SDS011;63608;49.572;12.348;2024-02-26T02:34:35;4.10;;;3.53;;
37097;SDS011;63608;49.572;12.348;2024-02-26T02:36:48;4.13;;;3.77;;
37097;SDS011;63608;49.572;12.348;2024-02-26T02:38:52;3.70;;;3.40;;
37097;SDS011;63608;49.572;12.348;2024-02-26T02:40:54;4.10;;;3.80;;
37097;SDS011;63608;49.572;12.348;2024-02-26T02:42:56;4.70;;;3.83;;
37097;SDS011;63608;49.572;12.348;2024-02-26T02:44:57;3.87;;;3.60;;
37097;SDS011;63608;49.572;12.348;2024-02-26T02:46:59;3.80;;;3.60;;
37097;SDS011;63608;49.572;12.348;2024-02-26T02:49:00;4.50;;;4.20;;
37097;SDS011;63608;49.572;12.348;2024-02-26T02:51:02;3.80;;;3.50;;
37097;SDS011;63608;49.572;12.348;2024-02-26T02:53:03;4.47;;;4.00;;
37097;SDS011;63608;49.572;12.348;2024-02-26T02:55:07;4.47;;;4.10;;
37097;SDS011;63608;49.572;12.348;2024-02-26T02:57:09;3.80;;;3.60;;
37097;SDS011;63608;49.572;12.348;2024-02-26T02:59:12;5.67;;;4.30;;
37097;SDS011;63608;49.572;12.348;2024-02-26T03:01:14;4.43;;;4.07;;
37097;SDS011;63608;49.572;12.348;2024-02-26T03:03:16;5.07;;;4.57;;
37097;SDS011;63608;49.572;12.348;2024-02-26T03:05:18;4.83;;;4.23;;
37097;SDS011;63608;49.572;12.348;2024-02-26T03:07:20;5.27;;;4.77;;
37097;SDS011;63608;49.572;12.348;2024-02-26T03:09:22;5.03;;;4.53;;
37097;SDS011;63608;49.572;12.348;2024-02-26T03:11:25;4.70;;;4.30;;
37097;SDS011;63608;49.572;12.348;2024-02-26T03:13:27;5.37;;;4.67;;
37097;SDS011;63608;49.572;12.348;2024-02-26T03:15:30;6.37;;;4.97;;
37097;SDS011;63608;49.572;12.348;2024-02-26T03:17:32;4.57;;;4.17;;
37097;SDS011;63608;49.572;12.348;2024-02-26T03:19:33;5.40;;;4.90;;
37097;SDS011;63608;49.572;12.348;2024-02-26T03:21:35;5.37;;;4.87;;
37097;SDS011;63608;49.572;12.348;2024-02-26T03:23:37;4.90;;;4.43;;
37097;SDS011;63608;49.572;12.348;2024-02-26T03:25:39;7.87;;;4.93;;
37097;SDS011;63608;49.572;12.348;2024-02-26T03:27:44;5.43;;;5.00;;
37097;SDS011;63608;49.572;12.348;2024-02-26T03:29:46;4.70;;;4.30;;
37097;SDS011;63608;49.572;12.348;2024-02-26T03:31:48;5.63;;;5.13;;
37097;SDS011;63608;49.572;12.348;2024-02-26T03:33:49;6.07;;;4.93;;
37097;SDS011;63608;49.572;12.348;2024-02-26T03:35:51;5.13;;;4.43;;
37097;SDS011;63608;49.572;12.348;2024-02-26T03:37:52;5.63;;;4.70;;
37097;SDS011;63608;49.572;12.348;2024-02-26T03:39:54;5.20;;;4.70;;
37097;SDS011;63608;49.572;12.348;2024-02-26T03:41:57;5.30;;;4.80;;
37097;SDS011;63608;49.572;12.348;2024-02-26T03:44:01;6.57;;;5.63;;
37097;SDS011;63608;49.572;12.348;2024-02-26T03:46:03;5.70;;;4.83;;
37097;SDS011;63608;49.572;12.348;2024-02-26T03:48:05;5.60;;;5.10;;
37097;SDS011;63608;49.572;12.348;2024-02-26T03:50:07;5.70;;;5.10;;
37097;SDS011;63608;49.572;12.348;2024-02-26T03:52:09;5.37;;;4.90;;
37097;SDS011;63608;49.572;12.348;2024-02-26T03:54:10;5.07;;;4.73;;
37097;SDS011;63608;49.572;12.348;2024-02-26T03:56:13;6.97;;;5.10;;
37097;SDS011;63608;49.572;12.348;2024-02-26T03:58:15;5.27;;;4.80;;
37097;SDS011;63608;49.572;12.348;2024-02-26T04:00:17;7.80;;;5.37;;
37097;SDS011;63608;49.572;12.348;2024-02-26T04:02:20;5.27;;;4.77;;
37097;SDS011;63608;49.572;12.348;2024-02-26T04:04:23;5.70;;;4.60;;
37097;SDS011;63608;49.572;12.348;2024-02-26T04:06:25;6.23;;;4.47;;
37097;SDS011;63608;49.572;12.348;2024-02-26T04:08:27;5.97;;;4.93;;
37097;SDS011;63608;49.572;12.348;2024-02-26T04:10:29;5.30;;;4.83;;
37097;SDS011;63608;49.572;12.348;2024-02-26T04:12:31;5.80;;;5.30;;
37097;SDS011;63608;49.572;12.348;2024-02-26T04:14:33;5.37;;;4.90;;
37097;SDS011;63608;49.572;12.348;2024-02-26T04:16:36;6.40;;;4.73;;
37097;SDS011;63608;49.572;12.348;2024-02-26T04:18:37;5.67;;;5.20;;
37097;SDS011;63608;49.572;12.348;2024-02-26T04:20:39;7.37;;;5.33;;
37097;SDS011;63608;49.572;12.348;2024-02-26T04:22:42;4.87;;;4.57;;
37097;SDS011;63608;49.572;12.348;2024-02-26T04:24:44;6.43;;;4.83;;
37097;SDS011;63608;49.572;12.348;2024-02-26T04:26:46;7.10;;;5.77;;
37097;SDS011;63608;49.572;12.348;2024-02-26T04:28:50;6.60;;;4.70;;
37097;SDS011;63608;49.572;12.348;2024-02-26T04:30:52;7.37;;;4.90;;
37097;SDS011;63608;49.572;12.348;2024-02-26T04:32:56;5.53;;;5.10;;
37097;SDS011;63608;49.572;12.348;2024-02-26T04:34:58;6.10;;;5.50;;
37097;SDS011;63608;49.572;12.348;2024-02-26T04:36:59;5.27;;;4.87;;
37097;SDS011;63608;49.572;12.348;2024-02-26T04:39:01;7.00;;;5.23;;
37097;SDS011;63608;49.572;12.348;2024-02-26T04:41:03;6.50;;;5.33;;
37097;SDS011;63608;49.572;12.348;2024-02-26T04:43:05;4.70;;;4.20;;
37097;SDS011;63608;49.572;12.348;2024-02-26T04:45:06;6.93;;;5.37;;
37097;SDS011;63608;49.572;12.348;2024-02-26T04:47:09;5.83;;;4.80;;
37097;SDS011;63608;49.572;12.348;2024-02-26T04:49:12;5.60;;;4.70;;
37097;SDS011;63608;49.572;12.348;2024-02-26T04:51:14;5.03;;;4.53;;
37097;SDS011;63608;49.572;12.348;2024-02-26T04:53:15;4.70;;;4.40;;
37097;SDS011;63608;49.572;12.348;2024-02-26T04:55:17;4.67;;;4.30;;
37097;SDS011;63608;49.572;12.348;2024-02-26T04:57:20;6.40;;;4.40;;
37097;SDS011;63608;49.572;12.348;2024-02-26T04:59:21;5.10;;;4.70;;
37097;SDS011;63608;49.572;12.348;2024-02-26T05:01:23;5.30;;;4.73;;
37097;SDS011;63608;49.572;12.348;2024-02-26T05:03:26;4.73;;;4.40;;
37097;SDS011;63608;49.572;12.348;2024-02-26T05:05:29;4.93;;;4.03;;
37097;SDS011;63608;49.572;12.348;2024-02-26T05:07:30;4.67;;;4.27;;
37097;SDS011;63608;49.572;12.348;2024-02-26T05:09:32;6.23;;;3.97;;
37097;SDS011;63608;49.572;12.348;2024-02-26T05:11:34;4.43;;;4.13;;
37097;SDS011;63608;49.572;12.348;2024-02-26T05:13:36;5.13;;;4.70;;
37097;SDS011;63608;49.572;12.348;2024-02-26T05:15:37;5.03;;;4.73;;
37097;SDS011;63608;49.572;12.348;2024-02-26T05:17:39;5.20;;;4.80;;
37097;SDS011;63608;49.572;12.348;2024-02-26T05:19:41;5.60;;;4.80;;
37097;SDS011;63608;49.572;12.348;2024-02-26T05:21:45;7.37;;;5.13;;
37097;SDS011;63608;49.572;12.348;2024-02-26T05:23:49;5.50;;;4.73;;
37097;SDS011;63608;49.572;12.348;2024-02-26T05:25:51;5.30;;;4.37;;
37097;SDS011;63608;49.572;12.348;2024-02-26T05:27:53;4.43;;;4.03;;
37097;SDS011;63608;49.572;12.348;2024-02-26T05:29:55;4.07;;;3.73;;
37097;SDS011;63608;49.572;12.348;2024-02-26T05:31:57;5.03;;;4.27;;
37097;SDS011;63608;49.572;12.348;2024-02-26T05:33:59;4.33;;;3.93;;
37097;SDS011;63608;49.572;12.348;2024-02-26T05:36:02;4.63;;;4.00;;
37097;SDS011;63608;49.572;12.348;2024-02-26T05:38:06;6.60;;;4.00;;
37097;SDS011;63608;49.572;12.348;2024-02-26T05:40:09;7.20;;;4.80;;
37097;SDS011;63608;49.572;12.348;2024-02-26T05:42:11;4.13;;;3.83;;
37097;SDS011;63608;49.572;12.348;2024-02-26T05:44:13;5.20;;;3.70;;
37097;SDS011;63608;49.572;12.348;2024-02-26T05:46:16;3.63;;;3.43;;
37097;SDS011;63608;49.572;12.348;2024-02-26T05:48:18;3.30;;;3.10;;
37097;SDS011;63608;49.572;12.348;2024-02-26T05:50:20;3.67;;;3.33;;
37097;SDS011;63608;49.572;12.348;2024-02-26T05:52:22;3.37;;;3.13;;
37097;SDS011;63608;49.572;12.348;2024-02-26T05:54:25;7.23;;;3.40;;
37097;SDS011;63608;49.572;12.348;2024-02-26T05:56:27;4.60;;;4.20;;
37097;SDS011;63608;49.572;12.348;2024-02-26T05:58:29;3.50;;;3.20;;
37097;SDS011;63608;49.572;12.348;2024-02-26T06:00:31;3.93;;;3.13;;
37097;SDS011;63608;49.572;12.348;2024-02-26T06:02:33;3.70;;;3.27;;
37097;SDS011;63608;49.572;12.348;2024-02-26T06:04:35;3.57;;;3.33;;
37097;SDS011;63608;49.572;12.348;2024-02-26T06:06:37;4.07;;;3.70;;
37097;SDS011;63608;49.572;12.348;2024-02-26T06:08:39;3.23;;;3.03;;
37097;SDS011;63608;49.572;12.348;2024-02-26T06:10:43;3.67;;;3.43;;
37097;SDS011;63608;49.572;12.348;2024-02-26T06:12:45;3.50;;;3.30;;
37097;SDS011;63608;49.572;12.348;2024-02-26T06:14:47;3.57;;;3.27;;
37097;SDS011;63608;49.572;12.348;2024-02-26T06:16:50;3.37;;;3.10;;
37097;SDS011;63608;49.572;12.348;2024-02-26T06:18:52;3.03;;;2.83;;
37097;SDS011;63608;49.572;12.348;2024-02-26T06:20:54;3.87;;;3.57;;
37097;SDS011;63608;49.572;12.348;2024-02-26T06:22:59;3.93;;;3.47;;
37097;SDS011;63608;49.572;12.348;2024-02-26T06:25:02;3.00;;;2.90;;
37097;SDS011;63608;49.572;12.348;2024-02-26T06:27:07;3.63;;;3.43;;
37097;SDS011;63608;49.572;12.348;2024-02-26T06:29:09;3.20;;;3.00;;
37097;SDS011;63608;49.572;12.348;2024-02-26T06:31:11;3.17;;;2.97;;
37097;SDS011;63608;49.572;12.348;2024-02-26T06:33:14;4.57;;;3.13;;
37097;SDS011;63608;49.572;12.348;2024-02-26T06:35:16;2.93;;;2.73;;
37097;SDS011;63608;49.572;12.348;2024-02-26T06:37:19;2.97;;;2.77;;
37097;SDS011;63608;49.572;12.348;2024-02-26T06:39:21;3.67;;;3.37;;
37097;SDS011;63608;49.572;12.348;2024-02-26T06:41:23;6.00;;;3.30;;
37097;SDS011;63608;49.572;12.348;2024-02-26T06:43:29;3.00;;;2.80;;
37097;SDS011;63608;49.572;12.348;2024-02-26T06:45:32;3.93;;;3.00;;
37097;SDS011;63608;49.572;12.348;2024-02-26T06:47:34;3.80;;;3.50;;
37097;SDS011;63608;49.572;12.348;2024-02-26T06:49:41;3.43;;;3.13;;
37097;SDS011;63608;49.572;12.348;2024-02-26T06:51:44;3.13;;;3.03;;
37097;SDS011;63608;49.572;12.348;2024-02-26T06:53:47;4.80;;;3.50;;
37097;SDS011;63608;49.572;12.348;2024-02-26T06:55:50;3.00;;;2.80;;
37097;SDS011;63608;49.572;12.348;2024-02-26T06:57:52;3.10;;;2.90;;
37097;SDS011;63608;49.572;12.348;2024-02-26T06:59:57;3.20;;;3.00;;
37097;SDS011;63608;49.572;12.348;2024-02-26T07:01:59;3.93;;;3.10;;
37097;SDS011;63608;49.572;12.348;2024-02-26T07:04:02;3.43;;;3.20;;
37097;SDS011;63608;49.572;12.348;2024-02-26T07:06:03;3.60;;;3.10;;
37097;SDS011;63608;49.572;12.348;2024-02-26T07:08:06;3.23;;;3.00;;
37097;SDS011;63608;49.572;12.348;2024-02-26T07:10:09;4.00;;;3.70;;
37097;SDS011;63608;49.572;12.348;2024-02-26T07:12:12;3.30;;;3.20;;
37097;SDS011;63608;49.572;12.348;2024-02-26T07:14:16;6.27;;;5.47;;
37097;SDS011;63608;49.572;12.348;2024-02-26T07:16:20;3.50;;;3.20;;
37097;SDS011;63608;49.572;12.348;2024-02-26T07:18:22;3.90;;;3.50;;
37097;SDS011;63608;49.572;12.348;2024-02-26T07:20:26;3.17;;;2.97;;
37097;SDS011;63608;49.572;12.348;2024-02-26T07:22:30;3.30;;;3.10;;
37097;SDS011;63608;49.572;12.348;2024-02-26T07:24:33;3.30;;;3.10;;
37097;SDS011;63608;49.572;12.348;2024-02-26T07:26:35;3.60;;;3.40;;
37097;SDS011;63608;49.572;12.348;2024-02-26T07:28:37;3.33;;;3.13;;
37097;SDS011;63608;49.572;12.348;2024-02-26T07:30:40;3.27;;;3.07;;
37097;SDS011;63608;49.572;12.348;2024-02-26T07:32:46;3.27;;;3.03;;
37097;SDS011;63608;49.572;12.348;2024-02-26T07:34:48;3.97;;;3.67;;
37097;SDS011;63608;49.572;12.348;2024-02-26T07:36:51;3.50;;;3.13;;
37097;SDS011;63608;49.572;12.348;2024-02-26T07:38:55;3.13;;;2.93;;
37097;SDS011;63608;49.572;12.348;2024-02-26T07:40:57;3.73;;;3.43;;
37097;SDS011;63608;49.572;12.348;2024-02-26T07:43:00;3.20;;;3.00;;
37097;SDS011;63608;49.572;12.348;2024-02-26T07:45:02;3.40;;;3.10;;
37097;SDS011;63608;49.572;12.348;2024-02-26T07:47:07;3.27;;;2.80;;
37097;SDS011;63608;49.572;12.348;2024-02-26T07:49:14;3.50;;;3.20;;
37097;SDS011;63608;49.572;12.348;2024-02-26T07:51:17;3.23;;;3.03;;
37097;SDS011;63608;49.572;12.348;2024-02-26T07:53:19;3.30;;;3.10;;
37097;SDS011;63608;49.572;12.348;2024-02-26T07:55:20;2.47;;;2.37;;
37097;SDS011;63608;49.572;12.348;2024-02-26T07:57:23;4.70;;;3.30;;
37097;SDS011;63608;49.572;12.348;2024-02-26T07:59:25;3.00;;;2.77;;
37097;SDS011;63608;49.572;12.348;2024-02-26T08:01:27;2.90;;;2.80;;
37097;SDS011;63608;49.572;12.348;2024-02-26T08:03:31;3.70;;;3.23;;
37097;SDS011;63608;49.572;12.348;2024-02-26T08:05:34;4.10;;;3.60;;
37097;SDS011;63608;49.572;12.348;2024-02-26T08:07:40;3.60;;;3.30;;
37097;SDS011;63608;49.572;12.348;2024-02-26T08:09:42;3.60;;;3.30;;
37097;SDS011;63608;49.572;12.348;2024-02-26T08:11:44;3.30;;;3.10;;
37097;SDS011;63608;49.572;12.348;2024-02-26T08:13:47;3.70;;;3.13;;
37097;SDS011;63608;49.572;12.348;2024-02-26T08:15:48;3.73;;;3.40;;
37097;SDS011;63608;49.572;12.348;2024-02-26T08:17:51;3.10;;;2.90;;
37097;SDS011;63608;49.572;12.348;2024-02-26T08:19:54;2.90;;;2.80;;
37097;SDS011;63608;49.572;12.348;2024-02-26T08:22:00;3.30;;;3.07;;
37097;SDS011;63608;49.572;12.348;2024-02-26T08:24:04;3.03;;;2.80;;
37097;SDS011;63608;49.572;12.348;2024-02-26T08:26:07;3.33;;;3.13;;
37097;SDS011;63608;49.572;12.348;2024-02-26T08:28:11;3.90;;;2.90;;
37097;SDS011;63608;49.572;12.348;2024-02-26T08:30:18;2.83;;;2.70;;
37097;SDS011;63608;49.572;12.348;2024-02-26T08:32:20;3.50;;;3.30;;
37097;SDS011;63608;49.572;12.348;2024-02-26T08:34:30;2.40;;;2.30;;
37097;SDS011;63608;49.572;12.348;2024-02-26T08:36:33;3.70;;;3.50;;
37097;SDS011;63608;49.572;12.348;2024-02-26T08:38:39;4.30;;;3.23;;
37097;SDS011;63608;49.572;12.348;2024-02-26T08:40:41;3.97;;;3.07;;
37097;SDS011;63608;49.572;12.348;2024-02-26T08:42:44;3.30;;;3.10;;
37097;SDS011;63608;49.572;12.348;2024-02-26T08:44:50;2.80;;;2.70;;
37097;SDS011;63608;49.572;12.348;2024-02-26T08:46:54;2.60;;;2.50;;
37097;SDS011;63608;49.572;12.348;2024-02-26T08:48:57;3.10;;;2.90;;
37097;SDS011;63608;49.572;12.348;2024-02-26T08:50:59;3.50;;;3.20;;
37097;SDS011;63608;49.572;12.348;2024-02-26T08:53:03;3.00;;;2.90;;
37097;SDS011;63608;49.572;12.348;2024-02-26T08:55:08;4.00;;;3.20;;
37097;SDS011;63608;49.572;12.348;2024-02-26T08:57:10;3.80;;;2.83;;
37097;SDS011;63608;49.572;12.348;2024-02-26T08:59:13;3.47;;;3.17;;
37097;SDS011;63608;49.572;12.348;2024-02-26T09:01:16;3.27;;;2.97;;
37097;SDS011;63608;49.572;12.348;2024-02-26T09:03:19;3.00;;;2.90;;
37097;SDS011;63608;49.572;12.348;2024-02-26T09:05:21;3.17;;;2.87;;
37097;SDS011;63608;49.572;12.348;2024-02-26T09:07:23;3.57;;;2.87;;
37097;SDS011;63608;49.572;12.348;2024-02-26T09:09:27;3.00;;;2.83;;
37097;SDS011;63608;49.572;12.348;2024-02-26T09:11:31;3.30;;;3.00;;
37097;SDS011;63608;49.572;12.348;2024-02-26T09:13:34;3.30;;;3.00;;
37097;SDS011;63608;49.572;12.348;2024-02-26T09:15:42;3.43;;;2.90;;
37097;SDS011;63608;49.572;12.348;2024-02-26T09:17:44;2.80;;;2.70;;
37097;SDS011;63608;49.572;12.348;2024-02-26T09:19:52;3.03;;;2.83;;
37097;SDS011;63608;49.572;12.348;2024-02-26T09:21:54;2.97;;;2.87;;
37097;SDS011;63608;49.572;12.348;2024-02-26T09:23:58;3.17;;;2.97;;
37097;SDS011;63608;49.572;12.348;2024-02-26T09:26:01;3.00;;;2.80;;
37097;SDS011;63608;49.572;12.348;2024-02-26T09:28:09;4.20;;;3.10;;
37097;SDS011;63608;49.572;12.348;2024-02-26T09:30:11;2.80;;;2.70;;
37097;SDS011;63608;49.572;12.348;2024-02-26T09:32:16;5.30;;;3.10;;
37097;SDS011;63608;49.572;12.348;2024-02-26T09:34:18;3.23;;;3.03;;
37097;SDS011;63608;49.572;12.348;2024-02-26T09:36:20;3.00;;;2.80;;
37097;SDS011;63608;49.572;12.348;2024-02-26T09:38:26;3.77;;;3.33;;
37097;SDS011;63608;49.572;12.348;2024-02-26T09:40:27;2.50;;;2.40;;
37097;SDS011;63608;49.572;12.348;2024-02-26T09:42:30;2.70;;;2.60;;
37097;SDS011;63608;49.572;12.348;2024-02-26T09:44:35;3.57;;;3.27;;
37097;SDS011;63608;49.572;12.348;2024-02-26T09:46:38;2.87;;;2.67;;
37097;SDS011;63608;49.572;12.348;2024-02-26T09:48:42;3.17;;;2.87;;
37097;SDS011;63608;49.572;12.348;2024-02-26T09:50:47;2.50;;;2.40;;
37097;SDS011;63608;49.572;12.348;2024-02-26T09:52:49;2.70;;;2.60;;
37097;SDS011;63608;49.572;12.348;2024-02-26T09:54:53;2.87;;;2.67;;
37097;SDS011;63608;49.572;12.348;2024-02-26T09:56:55;3.03;;;2.83;;
37097;SDS011;63608;49.572;12.348;2024-02-26T09:59:04;2.53;;;2.33;;
37097;SDS011;63608;49.572;12.348;2024-02-26T10:01:10;2.47;;;2.33;;
37097;SDS011;63608;49.572;12.348;2024-02-26T10:03:13;3.10;;;2.90;;
37097;SDS011;63608;49.572;12.348;2024-02-26T10:05:17;2.80;;;2.60;;
37097;SDS011;63608;49.572;12.348;2024-02-26T10:07:19;3.43;;;3.13;;
37097;SDS011;63608;49.572;12.348;2024-02-26T10:09:23;2.90;;;2.70;;
37097;SDS011;63608;49.572;12.348;2024-02-26T10:11:26;2.73;;;2.53;;
37097;SDS011;63608;49.572;12.348;2024-02-26T10:13:30;3.20;;;2.90;;
37097;SDS011;63608;49.572;12.348;2024-02-26T10:15:33;2.70;;;2.50;;
37097;SDS011;63608;49.572;12.348;2024-02-26T10:17:36;3.30;;;3.00;;
37097;SDS011;63608;49.572;12.348;2024-02-26T10:19:40;3.50;;;3.20;;
37097;SDS011;63608;49.572;12.348;2024-02-26T10:21:42;2.73;;;2.57;;
37097;SDS011;63608;49.572;12.348;2024-02-26T10:23:45;3.27;;;3.07;;
37097;SDS011;63608;49.572;12.348;2024-02-26T10:25:52;2.80;;;2.70;;
37097;SDS011;63608;49.572;12.348;2024-02-26T10:27:55;2.93;;;2.83;;
37097;SDS011;63608;49.572;12.348;2024-02-26T10:29:59;3.83;;;3.30;;
37097;SDS011;63608;49.572;12.348;2024-02-26T10:32:05;3.10;;;2.90;;
37097;SDS011;63608;49.572;12.348;2024-02-26T10:34:09;3.10;;;2.90;;
37097;SDS011;63608;49.572;12.348;2024-02-26T10:36:11;3.27;;;3.07;;
37097;SDS011;63608;49.572;12.348;2024-02-26T10:38:14;3.07;;;2.87;;
37097;SDS011;63608;49.572;12.348;2024-02-26T10:40:20;3.57;;;3.27;;
37097;SDS011;63608;49.572;12.348;2024-02-26T10:42:23;3.10;;;2.90;;
37097;SDS011;63608;49.572;12.348;2024-02-26T10:44:27;2.93;;;2.73;;
37097;SDS011;63608;49.572;12.348;2024-02-26T10:46:30;4.23;;;3.67;;
37097;SDS011;63608;49.572;12.348;2024-02-26T10:48:31;2.90;;;2.80;;
37097;SDS011;63608;49.572;12.348;2024-02-26T10:50:37;7.67;;;5.90;;
37097;SDS011;63608;49.572;12.348;2024-02-26T10:52:41;2.77;;;2.67;;
37097;SDS011;63608;49.572;12.348;2024-02-26T10:54:44;2.83;;;2.70;;
37097;SDS011;63608;49.572;12.348;2024-02-26T10:56:49;3.10;;;2.90;;
37097;SDS011;63608;49.572;12.348;2024-02-26T10:58:52;2.83;;;2.73;;
37097;SDS011;63608;49.572;12.348;2024-02-26T11:00:56;3.10;;;2.90;;
37097;SDS011;63608;49.572;12.348;2024-02-26T11:03:00;3.50;;;3.30;;
37097;SDS011;63608;49.572;12.348;2024-02-26T11:05:03;2.97;;;2.87;;
37097;SDS011;63608;49.572;12.348;2024-02-26T11:07:07;3.40;;;3.10;;
37097;SDS011;63608;49.572;12.348;2024-02-26T11:09:11;3.20;;;3.00;;
37097;SDS011;63608;49.572;12.348;2024-02-26T11:11:14;3.30;;;3.03;;
37097;SDS011;63608;49.572;12.348;2024-02-26T11:13:18;2.60;;;2.50;;
37097;SDS011;63608;49.572;12.348;2024-02-26T11:15:21;2.70;;;2.60;;
37097;SDS011;63608;49.572;12.348;2024-02-26T11:17:22;3.47;;;2.93;;
37097;SDS011;63608;49.572;12.348;2024-02-26T11:19:31;3.13;;;2.93;;
37097;SDS011;63608;49.572;12.348;2024-02-26T11:21:36;3.60;;;3.30;;
37097;SDS011;63608;49.572;12.348;2024-02-26T11:23:44;3.70;;;3.50;;
37097;SDS011;63608;49.572;12.348;2024-02-26T11:25:48;3.93;;;3.70;;
37097;SDS011;63608;49.572;12.348;2024-02-26T11:27:51;3.43;;;3.30;;
37097;SDS011;63608;49.572;12.348;2024-02-26T11:29:57;3.43;;;3.33;;
37097;SDS011;63608;49.572;12.348;2024-02-26T11:32:01;4.67;;;3.87;;
37097;SDS011;63608;49.572;12.348;2024-02-26T11:34:06;4.13;;;3.73;;
37097;SDS011;63608;49.572;12.348;2024-02-26T11:36:08;4.40;;;4.00;;
37097;SDS011;63608;49.572;12.348;2024-02-26T11:38:16;3.73;;;3.50;;
37097;SDS011;63608;49.572;12.348;2024-02-26T11:40:21;4.43;;;3.40;;
37097;SDS011;63608;49.572;12.348;2024-02-26T11:42:23;3.77;;;3.60;;
37097;SDS011;63608;49.572;12.348;2024-02-26T11:44:29;3.90;;;3.60;;
37097;SDS011;63608;49.572;12.348;2024-02-26T11:46:31;4.40;;;3.70;;
37097;SDS011;63608;49.572;12.348;2024-02-26T11:48:36;4.27;;;3.97;;
37097;SDS011;63608;49.572;12.348;2024-02-26T11:50:39;4.00;;;3.70;;
37097;SDS011;63608;49.572;12.348;2024-02-26T11:52:42;3.73;;;3.20;;
37097;SDS011;63608;49.572;12.348;2024-02-26T11:55:33;4.00;;;3.70;;
37097;SDS011;63608;49.572;12.348;2024-02-26T11:57:38;3.70;;;3.40;;
37097;SDS011;63608;49.572;12.348;2024-02-26T11:59:41;4.93;;;3.77;;
37097;SDS011;63608;49.572;12.348;2024-02-26T12:01:46;3.53;;;3.20;;
37097;SDS011;63608;49.572;12.348;2024-02-26T12:03:48;4.17;;;3.83;;
37097;SDS011;63608;49.572;12.348;2024-02-26T12:05:51;3.87;;;3.57;;
37097;SDS011;63608;49.572;12.348;2024-02-26T12:07:59;3.67;;;3.37;;
37097;SDS011;63608;49.572;12.348;2024-02-26T12:10:13;5.70;;;3.73;;